Time;durP1;ratioP1;P1;durP2;ratioP2;P2;SDS_P1;SDS_P2;PMS_P1;PMS_P2;Temp;Humidity;BMP_temperature;BMP_pressure;BME280_temperature;BME280_humidity;BME280_pressure;Samples;Min_cycle;Max_cycle;Signal;HPM_P1;HPM_P2
2022/09/06 00:02:19;;;;;;;6.20;3.03;;;20.90;64.10;;;;;;5037421;28;20506;-72
2022/09/06 00:04:49;;;;;;;5.47;2.70;;;20.90;64.20;;;;;;5039276;28;20541;-72
2022/09/06 00:07:17;;;;;;;4.63;2.53;;;20.80;64.20;;;;;;5040508;28;20460;-72
2022/09/06 00:09:45;;;;;;;5.23;3.30;;;20.80;64.30;;;;;;5036509;28;20491;-72
2022/09/06 00:12:13;;;;;;;4.70;2.77;;;20.70;64.30;;;;;;5034562;28;20496;-72
2022/09/06 00:14:41;;;;;;;6.50;3.20;;;20.70;64.40;;;;;;5022717;28;20466;-73
2022/09/06 00:17:09;;;;;;;6.43;3.00;;;20.60;64.40;;;;;;5018671;28;20845;-72
2022/09/06 00:19:37;;;;;;;5.97;3.10;;;20.60;64.50;;;;;;5016794;28;20483;-73
2022/09/06 00:22:06;;;;;;;5.43;2.80;;;20.60;64.50;;;;;;5038830;28;20467;-73
2022/09/06 00:24:36;;;;;;;6.87;3.47;;;20.60;64.50;;;;;;5038123;28;20541;-73
2022/09/06 00:27:05;;;;;;;12.23;3.50;;;20.60;64.60;;;;;;5038542;28;20520;-73
2022/09/06 00:29:33;;;;;;;7.23;3.90;;;20.60;64.50;;;;;;5027161;28;20476;-72
2022/09/06 00:32:01;;;;;;;5.27;2.97;;;20.50;64.50;;;;;;5035525;28;20452;-72
2022/09/06 00:34:29;;;;;;;6.27;2.70;;;20.50;64.50;;;;;;5020622;28;20463;-72
2022/09/06 00:36:57;;;;;;;5.00;2.80;;;20.50;64.50;;;;;;5030235;28;20886;-72
2022/09/06 00:39:26;;;;;;;7.33;2.77;;;20.40;64.40;;;;;;5035176;28;20506;-72
2022/09/06 00:41:54;;;;;;;7.27;3.43;;;20.40;64.50;;;;;;5037284;28;20474;-72
2022/09/06 00:44:22;;;;;;;5.47;2.80;;;20.30;64.40;;;;;;5032594;28;20465;-72
2022/09/06 00:46:52;;;;;;;6.67;2.87;;;20.30;64.50;;;;;;5017382;28;21063;-72
2022/09/06 00:49:24;;;;;;;6.00;3.47;;;20.30;64.50;;;;;;5040445;28;20485;-72
2022/09/06 00:51:55;;;;;;;7.80;3.50;;;20.20;64.50;;;;;;5037835;28;20530;-72
2022/09/06 00:54:23;;;;;;;5.20;2.90;;;20.20;64.70;;;;;;5035441;28;20462;-72
2022/09/06 00:56:54;;;;;;;6.47;3.97;;;20.10;64.70;;;;;;5019362;28;20902;-72
2022/09/06 00:59:24;;;;;;;5.40;3.23;;;20.10;64.80;;;;;;5036878;28;20481;-72
2022/09/06 01:01:52;;;;;;;7.27;3.50;;;20.10;64.80;;;;;;5025551;28;20457;-72
2022/09/06 01:04:20;;;;;;;5.90;3.53;;;20.00;64.80;;;;;;5033099;28;20488;-72
2022/09/06 01:06:57;;;;;;;6.60;3.07;;;20.00;64.90;;;;;;5026530;28;20478;-72
2022/09/06 01:09:36;;;;;;;8.30;2.70;;;20.00;64.90;;;;;;5037486;28;20488;-72
2022/09/06 01:12:19;;;;;;;5.90;3.40;;;20.00;65.00;;;;;;5034089;28;20466;-72
2022/09/06 01:15:00;;;;;;;5.83;2.90;;;20.00;65.00;;;;;;5039348;28;20454;-72
2022/09/06 01:17:39;;;;;;;4.83;2.53;;;20.00;65.10;;;;;;5018269;28;20637;-72
2022/09/06 01:20:50;;;;;;;8.20;2.90;;;20.00;65.10;;;;;;5038670;28;20514;-72
2022/09/06 01:24:04;;;;;;;6.27;2.97;;;20.00;65.10;;;;;;5014948;28;20886;-72
2022/09/06 01:26:51;;;;;;;6.10;3.20;;;20.00;65.00;;;;;;5033831;28;20932;-72
2022/09/06 01:29:28;;;;;;;6.53;3.40;;;20.00;65.00;;;;;;5028349;28;20489;-72
2022/09/06 01:32:01;;;;;;;5.43;3.00;;;20.00;65.00;;;;;;5041373;28;20950;-72
2022/09/06 01:34:35;;;;;;;6.10;3.23;;;20.00;65.10;;;;;;5034535;28;20460;-72
2022/09/06 01:37:07;;;;;;;9.70;2.87;;;20.00;65.10;;;;;;5019234;28;20850;-72
2022/09/06 01:39:39;;;;;;;6.00;3.63;;;20.00;65.10;;;;;;5022841;28;20488;-72
2022/09/06 01:42:10;;;;;;;5.57;3.30;;;20.00;65.10;;;;;;5036637;28;20937;-72
2022/09/06 01:44:43;;;;;;;6.20;3.10;;;19.90;65.10;;;;;;5034684;28;20471;-72
2022/09/06 01:47:21;;;;;;;5.63;3.17;;;19.90;65.20;;;;;;5039251;28;20485;-72
2022/09/06 01:50:05;;;;;;;5.27;2.97;;;19.90;65.20;;;;;;5038276;28;20489;-72
2022/09/06 01:52:38;;;;;;;6.70;2.70;;;19.90;65.30;;;;;;5039852;28;20467;-72
2022/09/06 01:55:16;;;;;;;6.33;2.93;;;19.90;65.40;;;;;;5042609;28;20452;-72
2022/09/06 01:58:03;;;;;;;6.67;3.20;;;19.90;65.50;;;;;;5030364;28;20462;-72
2022/09/06 02:00:38;;;;;;;6.20;3.20;;;19.90;65.60;;;;;;5038051;28;20956;-72
2022/09/06 02:03:10;;;;;;;5.40;2.93;;;19.90;65.60;;;;;;5033926;28;21034;-73
2022/09/06 02:05:45;;;;;;;6.57;3.43;;;19.90;65.70;;;;;;5035408;28;20468;-72
2022/09/06 02:08:16;;;;;;;4.93;2.90;;;19.90;65.80;;;;;;5039824;28;20456;-72
2022/09/06 02:10:50;;;;;;;7.50;3.33;;;20.00;65.80;;;;;;5039058;28;21052;-72
2022/09/06 02:13:23;;;;;;;9.70;3.30;;;20.00;65.80;;;;;;5039027;28;20449;-73
2022/09/06 02:15:56;;;;;;;6.00;3.40;;;20.00;65.80;;;;;;5044908;28;20462;-72
2022/09/06 02:18:29;;;;;;;5.80;3.27;;;20.00;65.80;;;;;;5038999;28;20463;-72
2022/09/06 02:20:59;;;;;;;5.60;3.23;;;19.90;65.90;;;;;;5034524;28;20489;-72
2022/09/06 02:23:33;;;;;;;7.80;3.50;;;19.90;65.90;;;;;;5019455;28;20454;-72
2022/09/06 02:26:06;;;;;;;6.60;3.67;;;19.90;65.90;;;;;;5018737;28;20456;-72
2022/09/06 02:28:34;;;;;;;5.63;3.17;;;19.90;66.00;;;;;;5034732;28;20460;-72
2022/09/06 02:31:09;;;;;;;5.80;3.33;;;19.90;66.00;;;;;;5033733;28;21054;-72
2022/09/06 02:33:39;;;;;;;7.87;3.73;;;19.90;66.10;;;;;;5035209;28;20489;-72
2022/09/06 02:36:09;;;;;;;8.47;3.63;;;19.80;66.00;;;;;;5035080;28;20464;-72
2022/09/06 02:38:40;;;;;;;6.53;3.10;;;19.80;66.10;;;;;;5031926;28;20446;-72
2022/09/06 02:41:09;;;;;;;5.70;3.23;;;19.70;66.10;;;;;;5033744;28;20482;-72
2022/09/06 02:43:37;;;;;;;5.73;3.10;;;19.70;66.20;;;;;;5033452;28;20453;-72
2022/09/06 02:46:06;;;;;;;7.27;3.60;;;19.70;66.30;;;;;;5035062;28;20467;-72
2022/09/06 02:48:34;;;;;;;7.40;3.10;;;19.70;66.40;;;;;;5033851;28;20483;-72
2022/09/06 02:51:04;;;;;;;8.80;3.87;;;19.70;66.50;;;;;;5039464;28;21041;-72
2022/09/06 02:53:32;;;;;;;7.93;3.30;;;19.70;66.60;;;;;;5019615;28;20458;-72
2022/09/06 02:56:00;;;;;;;8.83;3.70;;;19.70;66.60;;;;;;5018861;28;20475;-72
2022/09/06 02:58:28;;;;;;;7.53;3.20;;;19.70;66.50;;;;;;5030103;28;20830;-72
2022/09/06 03:00:56;;;;;;;5.93;3.23;;;19.70;66.60;;;;;;5035769;28;20598;-72
2022/09/06 03:03:26;;;;;;;6.43;3.60;;;19.70;66.60;;;;;;5038320;28;21035;-72
2022/09/06 03:05:55;;;;;;;6.10;3.50;;;19.70;66.60;;;;;;5033540;28;20539;-72
2022/09/06 03:08:25;;;;;;;7.20;3.43;;;19.70;66.60;;;;;;5037374;28;20603;-72
2022/09/06 03:10:55;;;;;;;6.30;3.40;;;19.70;66.70;;;;;;5043005;28;20487;-72
2022/09/06 03:13:23;;;;;;;9.60;4.30;;;19.70;67.10;;;;;;5040683;28;20819;-72
2022/09/06 03:15:52;;;;;;;9.23;3.80;;;19.60;67.00;;;;;;5022106;28;20462;-72
2022/09/06 03:18:20;;;;;;;6.20;4.10;;;19.50;67.40;;;;;;5030372;28;20468;-72
2022/09/06 03:20:50;;;;;;;9.47;4.10;;;19.50;67.70;;;;;;5035551;28;20990;-72
2022/09/06 03:23:19;;;;;;;7.30;3.50;;;19.60;67.90;;;;;;5033864;28;20536;-72
2022/09/06 03:25:47;;;;;;;5.93;3.67;;;19.60;68.00;;;;;;5037382;28;20962;-72
2022/09/06 03:28:15;;;;;;;6.20;3.63;;;19.60;68.10;;;;;;5041594;28;20482;-70
2022/09/06 03:30:45;;;;;;;15.40;3.37;;;19.70;68.20;;;;;;5040121;28;20474;-70
2022/09/06 03:33:13;;;;;;;5.87;3.43;;;19.70;68.30;;;;;;5038574;28;20456;-70
2022/09/06 03:35:46;;;;;;;9.10;4.20;;;19.70;68.40;;;;;;5038953;28;20455;-71
2022/09/06 03:38:16;;;;;;;8.50;3.70;;;19.70;68.50;;;;;;5039807;28;20465;-72
2022/09/06 03:40:45;;;;;;;6.87;3.80;;;19.70;68.60;;;;;;5037971;28;20488;-72
2022/09/06 03:43:13;;;;;;;8.10;4.20;;;19.70;68.70;;;;;;5037241;28;20583;-72
2022/09/06 03:45:45;;;;;;;8.90;3.80;;;19.70;68.70;;;;;;5035360;28;20546;-72
2022/09/06 03:48:13;;;;;;;6.40;4.20;;;19.70;68.90;;;;;;5037500;28;20503;-71
2022/09/06 03:50:45;;;;;;;6.97;3.90;;;19.70;68.90;;;;;;5038512;28;20492;-72
2022/09/06 03:53:13;;;;;;;7.60;3.07;;;19.80;69.00;;;;;;5024389;28;20926;-72
2022/09/06 03:55:46;;;;;;;7.13;3.80;;;19.80;68.90;;;;;;5037956;28;21007;-72
2022/09/06 03:58:14;;;;;;;7.60;3.37;;;19.80;69.00;;;;;;5039620;28;20459;-71
2022/09/06 04:00:42;;;;;;;6.90;3.70;;;19.80;69.00;;;;;;5039934;28;21026;-71
2022/09/06 04:03:11;;;;;;;11.60;4.60;;;19.80;69.10;;;;;;5039654;28;20532;-71
2022/09/06 04:05:39;;;;;;;8.10;3.77;;;19.80;69.10;;;;;;5040199;28;20473;-71
2022/09/06 04:08:07;;;;;;;9.70;3.70;;;19.80;69.10;;;;;;5022811;28;20495;-71
2022/09/06 04:10:35;;;;;;;7.27;3.50;;;19.80;69.10;;;;;;5039153;28;21210;-71
2022/09/06 04:13:04;;;;;;;5.80;3.30;;;19.90;69.20;;;;;;5038119;28;20468;-71
2022/09/06 04:15:32;;;;;;;6.13;3.70;;;19.90;69.20;;;;;;5037393;28;20465;-71
2022/09/06 04:18:00;;;;;;;8.60;3.77;;;19.90;69.10;;;;;;5029506;28;20998;-71
2022/09/06 04:20:32;;;;;;;6.63;3.73;;;19.90;69.10;;;;;;5037252;28;20508;-71
2022/09/06 04:23:00;;;;;;;6.50;3.30;;;19.90;69.10;;;;;;5014367;28;20467;-71
2022/09/06 04:25:28;;;;;;;6.93;3.70;;;19.90;69.20;;;;;;5042699;28;20985;-71
2022/09/06 04:27:56;;;;;;;7.23;3.20;;;19.90;69.20;;;;;;5040588;28;20569;-72
2022/09/06 04:30:25;;;;;;;9.83;4.00;;;19.90;69.20;;;;;;5037932;28;20499;-72
2022/09/06 04:32:53;;;;;;;6.30;3.87;;;19.90;69.20;;;;;;5022921;28;20459;-72
2022/09/06 04:35:21;;;;;;;9.37;3.87;;;19.90;69.30;;;;;;5026184;28;20702;-72
2022/09/06 04:37:49;;;;;;;6.20;3.53;;;19.90;69.30;;;;;;5034963;28;20470;-72
2022/09/06 04:40:17;;;;;;;8.43;3.77;;;19.90;69.20;;;;;;5041602;28;20476;-72
2022/09/06 04:42:45;;;;;;;7.50;3.60;;;20.00;69.20;;;;;;5038140;28;20462;-72
2022/09/06 04:45:13;;;;;;;10.93;3.93;;;19.90;69.10;;;;;;5038958;28;20455;-72
2022/09/06 04:47:42;;;;;;;7.20;3.43;;;19.90;69.10;;;;;;5026458;28;20482;-71
2022/09/06 04:50:10;;;;;;;5.83;3.73;;;19.80;69.10;;;;;;5039087;28;20793;-72
2022/09/06 04:52:38;;;;;;;6.73;3.47;;;19.80;69.30;;;;;;5036339;28;20464;-71
2022/09/06 04:55:07;;;;;;;8.63;4.40;;;19.80;69.40;;;;;;5035862;28;20832;-71
2022/09/06 04:57:35;;;;;;;6.20;3.80;;;19.90;69.50;;;;;;5036325;28;20440;-72
2022/09/06 05:00:08;;;;;;;8.63;3.87;;;19.90;69.50;;;;;;5036040;28;20589;-72
2022/09/06 05:02:36;;;;;;;9.17;3.60;;;19.90;69.60;;;;;;5025482;28;21081;-71
2022/09/06 05:05:06;;;;;;;6.70;3.83;;;20.00;69.60;;;;;;5034316;28;20474;-71
2022/09/06 05:07:34;;;;;;;5.67;3.47;;;20.00;69.60;;;;;;5033463;28;20468;-71
2022/09/06 05:10:02;;;;;;;6.80;4.00;;;20.00;69.50;;;;;;5036402;28;20487;-71
2022/09/06 05:12:30;;;;;;;7.10;3.80;;;20.00;69.40;;;;;;5028119;28;20465;-72
2022/09/06 05:14:58;;;;;;;7.43;3.50;;;19.90;69.50;;;;;;5035090;28;20494;-71
2022/09/06 05:17:26;;;;;;;7.23;4.23;;;19.90;69.70;;;;;;5038192;28;20464;-71
2022/09/06 05:19:54;;;;;;;8.53;4.33;;;20.00;69.80;;;;;;5023021;28;20554;-71
2022/09/06 05:22:23;;;;;;;10.37;4.03;;;20.00;69.70;;;;;;5035690;28;20458;-71
2022/09/06 05:24:51;;;;;;;9.47;4.50;;;20.00;69.60;;;;;;5032486;28;20460;-71
2022/09/06 05:27:19;;;;;;;7.63;3.70;;;20.00;69.70;;;;;;5037653;28;20479;-71
2022/09/06 05:29:47;;;;;;;6.63;3.93;;;20.00;69.60;;;;;;5042127;28;21014;-71
2022/09/06 05:32:15;;;;;;;6.10;3.40;;;20.00;69.70;;;;;;5036276;28;20458;-71
2022/09/06 05:34:43;;;;;;;8.33;4.57;;;20.00;69.80;;;;;;5034515;28;20455;-71
2022/09/06 05:37:11;;;;;;;12.87;4.37;;;20.00;69.80;;;;;;5019059;28;20463;-72
2022/09/06 05:39:40;;;;;;;11.43;3.90;;;20.10;69.80;;;;;;5038433;28;20482;-71
2022/09/06 05:42:08;;;;;;;13.77;4.07;;;20.00;69.70;;;;;;5032962;28;20449;-71
2022/09/06 05:44:37;;;;;;;11.70;4.10;;;20.00;69.80;;;;;;5036027;28;21016;-72
2022/09/06 05:47:05;;;;;;;10.87;4.20;;;20.10;69.90;;;;;;5036720;28;20459;-71
2022/09/06 05:49:33;;;;;;;11.07;4.40;;;20.10;69.90;;;;;;5036732;28;20588;-72
2022/09/06 05:52:02;;;;;;;13.37;4.27;;;20.10;69.90;;;;;;5033274;28;20469;-71
2022/09/06 05:54:30;;;;;;;10.00;4.17;;;20.20;69.90;;;;;;5038817;28;20465;-71
2022/09/06 05:56:59;;;;;;;10.50;3.90;;;20.20;69.90;;;;;;5038500;28;20488;-72
2022/09/06 05:59:27;;;;;;;12.67;4.37;;;20.10;69.90;;;;;;5037573;28;20474;-72
2022/09/06 06:01:55;;;;;;;10.30;4.20;;;20.10;69.90;;;;;;5034578;28;20488;-72
2022/09/06 06:04:23;;;;;;;9.67;4.37;;;20.20;70.00;;;;;;5037470;28;20466;-72
2022/09/06 06:06:51;;;;;;;13.40;4.40;;;20.20;70.00;;;;;;5042598;28;20461;-71
2022/09/06 06:09:19;;;;;;;9.10;4.07;;;20.20;70.00;;;;;;5030914;28;20503;-72
2022/09/06 06:11:47;;;;;;;10.27;3.80;;;20.30;70.00;;;;;;5018884;28;20455;-72
2022/09/06 06:14:16;;;;;;;9.93;4.47;;;20.30;70.10;;;;;;5037018;28;20789;-71
2022/09/06 06:16:44;;;;;;;8.80;3.73;;;20.30;70.10;;;;;;5021690;28;20452;-71
2022/09/06 06:19:14;;;;;;;10.13;3.70;;;20.40;70.10;;;;;;5031684;28;20456;-71
2022/09/06 06:21:42;;;;;;;8.70;4.20;;;20.40;70.10;;;;;;5031536;28;20561;-71
2022/09/06 06:24:10;;;;;;;9.70;4.23;;;20.40;70.10;;;;;;5036528;28;20471;-71
2022/09/06 06:26:38;;;;;;;17.60;4.43;;;20.40;70.10;;;;;;5032956;28;20450;-71
2022/09/06 06:29:08;;;;;;;16.67;4.10;;;20.40;70.10;;;;;;5017046;28;20481;-70
2022/09/06 06:31:38;;;;;;;13.30;4.77;;;20.40;70.10;;;;;;5033208;28;20475;-71
2022/09/06 06:34:07;;;;;;;8.20;4.20;;;20.50;70.10;;;;;;5028836;28;20547;-71
2022/09/06 06:36:36;;;;;;;9.60;4.17;;;20.50;70.20;;;;;;5039120;28;20454;-73
2022/09/06 06:39:07;;;;;;;8.03;3.80;;;20.50;70.10;;;;;;5038746;28;20923;-73
2022/09/06 06:41:35;;;;;;;8.43;4.00;;;20.60;70.10;;;;;;5032461;28;20476;-73
2022/09/06 06:44:13;;;;;;;5.93;3.50;;;20.60;70.00;;;;;;5037108;28;20476;-73
2022/09/06 06:46:43;;;;;;;7.40;3.77;;;20.60;69.90;;;;;;5038481;28;20474;-73
2022/09/06 06:49:11;;;;;;;7.07;4.00;;;20.60;69.90;;;;;;5043896;28;20485;-73
2022/09/06 06:51:39;;;;;;;9.10;3.30;;;20.60;69.80;;;;;;5035970;28;20463;-74
2022/09/06 06:54:07;;;;;;;6.83;3.73;;;20.70;69.80;;;;;;5034627;28;20474;-74
2022/09/06 06:56:36;;;;;;;6.30;3.90;;;20.70;69.80;;;;;;5012980;28;20454;-74
2022/09/06 06:59:05;;;;;;;6.83;3.60;;;20.70;69.70;;;;;;5039211;28;20451;-73
2022/09/06 07:01:35;;;;;;;7.00;3.60;;;20.80;69.60;;;;;;5036705;28;20609;-73
2022/09/06 07:04:05;;;;;;;9.00;4.30;;;20.80;69.50;;;;;;5039310;28;21025;-73
2022/09/06 07:06:47;;;;;;;7.73;3.40;;;20.80;69.50;;;;;;5038571;28;21064;-73
2022/09/06 07:09:35;;;;;;;7.67;3.40;;;20.80;69.60;;;;;;5036244;28;20498;-73
2022/09/06 07:12:23;;;;;;;7.83;4.20;;;20.90;69.40;;;;;;5038135;28;20495;-74
2022/09/06 07:14:51;;;;;;;7.80;3.80;;;21.00;69.40;;;;;;5040169;28;20473;-74
2022/09/06 07:17:19;;;;;;;7.07;3.40;;;21.00;69.30;;;;;;5038084;28;21268;-74
2022/09/06 07:19:48;;;;;;;7.50;3.20;;;21.10;69.20;;;;;;5037762;28;20476;-74
2022/09/06 07:22:37;;;;;;;5.83;3.13;;;21.10;69.20;;;;;;5045498;28;20458;-74
2022/09/06 07:25:06;;;;;;;5.70;2.97;;;21.20;69.10;;;;;;5029614;28;20975;-74
2022/09/06 07:27:34;;;;;;;7.90;3.30;;;21.20;69.00;;;;;;5024782;28;20477;-73
2022/09/06 07:30:19;;;;;;;7.87;3.80;;;21.20;68.90;;;;;;5040319;28;21036;-73
2022/09/06 07:32:47;;;;;;;5.00;2.87;;;21.30;68.90;;;;;;5038844;28;20462;-73
2022/09/06 07:35:19;;;;;;;8.30;3.20;;;21.30;68.80;;;;;;5039459;28;21152;-73
2022/09/06 07:37:54;;;;;;;11.20;3.60;;;21.30;68.80;;;;;;5035754;28;20447;-73
2022/09/06 07:40:22;;;;;;;9.40;3.80;;;21.40;68.60;;;;;;5038057;28;20698;-73
2022/09/06 07:42:50;;;;;;;6.73;3.57;;;21.40;68.60;;;;;;5018488;28;20460;-73
2022/09/06 07:45:18;;;;;;;7.00;3.80;;;21.40;68.60;;;;;;5037174;28;20474;-73
2022/09/06 07:47:53;;;;;;;5.60;2.97;;;21.40;68.50;;;;;;5035358;28;20474;-73
2022/09/06 07:50:29;;;;;;;6.73;3.50;;;21.50;68.50;;;;;;5036488;28;20570;-74
2022/09/06 07:53:15;;;;;;;9.20;3.70;;;21.50;68.50;;;;;;5021812;28;20460;-74
2022/09/06 07:55:57;;;;;;;6.90;3.17;;;21.50;68.40;;;;;;5016507;28;20471;-73
2022/09/06 07:58:25;;;;;;;7.40;3.50;;;21.60;68.40;;;;;;5037129;28;20469;-75
2022/09/06 08:00:53;;;;;;;7.60;3.10;;;21.60;68.30;;;;;;5034305;28;20491;-73
2022/09/06 08:03:21;;;;;;;6.90;3.43;;;21.70;68.20;;;;;;5035949;28;20460;-74
2022/09/06 08:05:51;;;;;;;8.13;3.87;;;21.70;68.10;;;;;;5035536;28;20460;-73
2022/09/06 08:08:34;;;;;;;7.37;3.67;;;21.80;68.10;;;;;;5037117;28;21005;-73
2022/09/06 08:11:23;;;;;;;6.83;3.73;;;21.80;68.00;;;;;;5025373;28;20509;-73
2022/09/06 08:13:53;;;;;;;8.87;3.50;;;21.90;68.00;;;;;;5038438;28;20573;-73
2022/09/06 08:16:22;;;;;;;11.00;3.97;;;21.90;67.90;;;;;;5035955;28;20466;-73
2022/09/06 08:18:52;;;;;;;9.67;3.70;;;21.90;67.90;;;;;;5036157;28;21022;-73
2022/09/06 08:21:23;;;;;;;6.93;3.30;;;22.00;67.90;;;;;;5037441;28;20570;-73
2022/09/06 08:23:52;;;;;;;6.60;3.60;;;22.00;67.80;;;;;;5023654;28;20459;-74
2022/09/06 08:26:22;;;;;;;7.70;3.27;;;22.10;67.80;;;;;;5037443;28;20464;-73
2022/09/06 08:28:54;;;;;;;6.43;3.30;;;22.10;67.70;;;;;;5036069;28;21077;-74
2022/09/06 08:31:22;;;;;;;7.37;3.83;;;22.10;67.70;;;;;;5034340;28;20496;-74
2022/09/06 08:33:51;;;;;;;8.90;3.67;;;22.20;67.60;;;;;;5036908;28;20462;-73
2022/09/06 08:36:21;;;;;;;7.40;4.00;;;22.20;67.60;;;;;;5036516;28;20536;-73
2022/09/06 08:38:49;;;;;;;7.17;3.30;;;22.30;67.50;;;;;;5038113;28;20469;-73
2022/09/06 08:41:24;;;;;;;7.73;3.53;;;22.40;67.40;;;;;;5037903;28;20882;-73
2022/09/06 08:43:54;;;;;;;6.57;3.80;;;22.40;67.30;;;;;;5037150;28;20462;-73
2022/09/06 08:46:50;;;;;;;14.13;4.00;;;22.50;67.10;;;;;;5034046;28;20472;-73
2022/09/06 08:49:18;;;;;;;7.00;3.60;;;22.50;67.10;;;;;;5035741;28;20504;-73
2022/09/06 08:52:09;;;;;;;8.93;3.70;;;22.50;66.90;;;;;;5034082;28;20480;-74
2022/09/06 08:54:40;;;;;;;5.63;3.63;;;22.60;66.90;;;;;;5039630;28;20466;-74
2022/09/06 08:57:19;;;;;;;9.77;3.33;;;22.60;66.80;;;;;;5038615;28;20464;-76
2022/09/06 08:59:48;;;;;;;12.03;3.40;;;22.60;66.80;;;;;;5018745;28;20488;-76
2022/09/06 09:02:20;;;;;;;9.67;3.60;;;22.70;66.70;;;;;;5036653;28;20471;-76
2022/09/06 09:04:51;;;;;;;10.70;3.60;;;22.70;66.60;;;;;;5031699;28;20472;-76
2022/09/06 09:07:38;;;;;;;12.20;4.07;;;22.80;66.50;;;;;;5034858;28;20565;-76
2022/09/06 09:10:12;;;;;;;7.70;3.13;;;22.80;66.40;;;;;;5039099;28;20626;-75
2022/09/06 09:12:45;;;;;;;8.20;3.80;;;22.90;66.30;;;;;;5037745;28;20471;-75
2022/09/06 09:15:16;;;;;;;7.37;3.10;;;23.00;66.20;;;;;;5032928;28;20573;-75
2022/09/06 09:17:46;;;;;;;6.30;3.20;;;23.00;66.20;;;;;;5037205;28;20833;-74
2022/09/06 09:20:14;;;;;;;9.83;3.23;;;23.10;66.00;;;;;;5035137;28;20475;-75
2022/09/06 09:22:45;;;;;;;6.07;2.90;;;23.20;65.90;;;;;;5034682;28;20507;-75
2022/09/06 09:25:19;;;;;;;6.60;3.30;;;23.20;65.70;;;;;;5030473;28;20474;-74
2022/09/06 09:27:56;;;;;;;5.83;3.10;;;23.30;65.50;;;;;;5035378;28;20991;-74
2022/09/06 09:30:25;;;;;;;5.43;2.87;;;23.30;65.40;;;;;;5033950;28;20480;-75
2022/09/06 09:33:22;;;;;;;5.00;3.10;;;23.40;65.20;;;;;;5035663;28;20463;-74
2022/09/06 09:35:51;;;;;;;5.13;2.83;;;23.40;64.90;;;;;;5039741;28;20471;-74
2022/09/06 09:38:24;;;;;;;6.17;2.90;;;23.50;64.90;;;;;;5036095;28;20475;-75
2022/09/06 09:40:53;;;;;;;7.23;3.20;;;23.60;64.70;;;;;;5038271;28;20525;-75
2022/09/06 09:43:23;;;;;;;10.77;3.00;;;23.60;64.60;;;;;;5036806;28;20471;-74
2022/09/06 09:46:13;;;;;;;6.73;3.23;;;23.70;64.40;;;;;;5034968;28;20834;-74
2022/09/06 09:48:48;;;;;;;6.00;3.20;;;23.80;64.10;;;;;;5037786;28;20502;-75
2022/09/06 09:51:21;;;;;;;6.40;2.77;;;23.80;63.90;;;;;;5026292;28;21171;-75
2022/09/06 09:53:56;;;;;;;5.33;3.03;;;23.90;63.80;;;;;;5036018;28;21002;-75
2022/09/06 09:56:30;;;;;;;7.50;2.97;;;23.90;63.70;;;;;;5033411;28;21087;-74
2022/09/06 09:58:59;;;;;;;6.20;2.53;;;24.10;63.40;;;;;;5034781;28;20470;-75
2022/09/06 10:01:29;;;;;;;6.00;3.00;;;24.20;63.00;;;;;;5016682;28;20585;-72
2022/09/06 10:04:02;;;;;;;7.13;3.27;;;24.20;62.90;;;;;;5039241;28;20460;-72
2022/09/06 10:06:50;;;;;;;5.60;3.00;;;24.30;62.70;;;;;;5035350;28;20463;-70
2022/09/06 10:09:37;;;;;;;5.63;3.13;;;24.30;62.70;;;;;;5034366;28;20481;-71
2022/09/06 10:12:06;;;;;;;5.17;2.80;;;24.40;62.60;;;;;;5035665;28;21068;-71
2022/09/06 10:14:41;;;;;;;5.20;3.00;;;24.40;62.50;;;;;;5033218;28;21070;-70
2022/09/06 10:17:19;;;;;;;7.07;3.30;;;24.40;62.50;;;;;;5032388;28;20471;-71
2022/09/06 10:19:47;;;;;;;8.77;3.20;;;24.50;62.40;;;;;;5038221;28;20549;-71
2022/09/06 10:22:26;;;;;;;7.90;2.80;;;24.50;62.30;;;;;;5038709;28;20599;-71
2022/09/06 10:25:09;;;;;;;6.60;3.13;;;24.50;62.30;;;;;;5039974;28;21893;-71
2022/09/06 10:27:43;;;;;;;5.60;3.30;;;24.50;62.20;;;;;;5034736;28;20553;-71
2022/09/06 10:30:35;;;;;;;11.33;3.60;;;24.50;62.40;;;;;;5032434;28;20489;-71
2022/09/06 10:33:08;;;;;;;8.33;3.37;;;24.60;62.30;;;;;;5035684;28;20803;-71
2022/09/06 10:35:37;;;;;;;7.57;3.20;;;24.70;62.20;;;;;;5042494;28;20453;-71
2022/09/06 10:38:24;;;;;;;6.27;3.13;;;24.70;62.10;;;;;;5028744;28;21206;-71
2022/09/06 10:41:00;;;;;;;9.47;2.50;;;24.80;62.10;;;;;;5041134;28;20470;-71
2022/09/06 10:43:35;;;;;;;7.27;3.27;;;24.80;62.00;;;;;;5019116;28;20466;-72
2022/09/06 10:46:10;;;;;;;6.80;3.67;;;24.80;61.80;;;;;;5022699;28;20467;-72
2022/09/06 10:48:40;;;;;;;5.77;2.50;;;24.90;61.80;;;;;;5038593;28;21062;-72
2022/09/06 10:51:17;;;;;;;6.43;3.07;;;25.00;61.70;;;;;;5036577;28;20491;-72
2022/09/06 10:53:51;;;;;;;5.60;3.10;;;25.10;61.50;;;;;;5033536;28;20466;-71
2022/09/06 10:56:26;;;;;;;7.43;2.43;;;25.10;61.40;;;;;;5037167;28;20439;-72
2022/09/06 10:59:01;;;;;;;7.37;2.70;;;25.20;61.20;;;;;;5038209;28;20546;-72
2022/09/06 11:01:57;;;;;;;7.13;3.17;;;25.30;61.00;;;;;;5034723;28;20471;-71
2022/09/06 11:04:29;;;;;;;7.67;3.63;;;25.30;60.90;;;;;;5036753;28;20472;-72
2022/09/06 11:07:00;;;;;;;6.83;3.13;;;25.30;60.90;;;;;;5033969;28;20975;-71
2022/09/06 11:09:35;;;;;;;5.00;2.83;;;25.30;60.80;;;;;;5036546;28;20590;-72
2022/09/06 11:12:10;;;;;;;6.23;3.13;;;25.30;60.60;;;;;;5020018;28;20465;-72
2022/09/06 11:14:40;;;;;;;7.13;2.70;;;25.30;60.70;;;;;;5034327;28;20471;-72
2022/09/06 11:17:13;;;;;;;5.40;3.23;;;25.30;60.60;;;;;;5035103;28;20478;-72
2022/09/06 11:19:50;;;;;;;9.40;3.37;;;25.40;60.60;;;;;;5038976;28;20493;-72
2022/09/06 11:22:45;;;;;;;5.80;2.90;;;25.40;60.60;;;;;;5033953;28;20572;-72
2022/09/06 11:25:42;;;;;;;4.97;2.67;;;25.50;60.50;;;;;;5038702;28;20473;-72
2022/09/06 11:28:16;;;;;;;9.20;2.60;;;25.50;60.50;;;;;;5037442;28;20458;-72
2022/09/06 11:30:47;;;;;;;5.50;3.10;;;25.50;60.60;;;;;;5019973;28;20484;-72
2022/09/06 11:33:23;;;;;;;7.90;3.30;;;25.60;60.50;;;;;;5042064;28;20447;-72
2022/09/06 11:35:53;;;;;;;7.17;2.87;;;25.60;60.30;;;;;;5040118;28;20488;-71
2022/09/06 11:38:25;;;;;;;5.07;2.80;;;25.60;60.20;;;;;;5036516;28;20467;-71
2022/09/06 11:41:00;;;;;;;6.57;3.40;;;25.60;60.10;;;;;;5022346;28;20577;-71
2022/09/06 11:43:48;;;;;;;9.07;3.57;;;25.70;60.00;;;;;;5034651;28;21112;-72
2022/09/06 11:46:54;;;;;;;8.03;3.00;;;25.80;59.90;;;;;;5036976;28;20636;-72
2022/09/06 11:49:30;;;;;;;10.37;2.63;;;25.80;59.80;;;;;;5038913;28;20467;-72
2022/09/06 11:51:59;;;;;;;5.50;2.57;;;25.80;59.50;;;;;;5038497;28;20468;-72
2022/09/06 11:54:41;;;;;;;6.93;2.67;;;25.80;59.50;;;;;;5037985;28;20967;-72
2022/09/06 11:57:14;;;;;;;6.57;2.57;;;25.90;59.40;;;;;;5034952;28;21152;-72
2022/09/06 11:59:55;;;;;;;6.20;2.03;;;26.00;59.20;;;;;;5035110;28;20488;-72
2022/09/06 12:02:33;;;;;;;9.40;2.40;;;26.10;58.70;;;;;;5033659;28;20454;-72
2022/09/06 12:05:30;;;;;;;4.50;1.67;;;26.10;58.40;;;;;;5041814;28;20453;-72
2022/09/06 12:08:30;;;;;;;7.13;2.17;;;26.20;58.10;;;;;;5038103;28;20459;-72
2022/09/06 12:11:21;;;;;;;5.03;2.13;;;26.30;58.00;;;;;;5036692;28;21018;-72
2022/09/06 12:13:55;;;;;;;5.00;1.43;;;26.30;57.60;;;;;;5038055;28;20468;-72
2022/09/06 12:16:45;;;;;;;6.53;2.10;;;26.30;57.30;;;;;;5032405;28;20463;-72
2022/09/06 12:19:44;;;;;;;4.60;1.83;;;26.40;57.00;;;;;;5036365;28;20512;-72
2022/09/06 12:23:02;;;;;;;5.03;1.43;;;26.40;56.80;;;;;;5037219;28;20475;-72
2022/09/06 12:25:51;;;;;;;9.30;1.80;;;26.40;56.50;;;;;;5037125;28;20452;-72
2022/09/06 12:28:35;;;;;;;8.30;2.10;;;26.40;56.30;;;;;;5036724;28;20542;-72
2022/09/06 12:31:27;;;;;;;5.90;1.97;;;26.50;56.40;;;;;;5035358;28;20481;-72
2022/09/06 12:33:58;;;;;;;4.80;1.90;;;26.50;56.30;;;;;;5037396;28;20462;-72
2022/09/06 12:36:29;;;;;;;6.40;2.20;;;26.60;56.10;;;;;;5034728;28;20548;-73
2022/09/06 12:38:59;;;;;;;5.23;1.80;;;26.70;55.90;;;;;;5033750;28;20453;-72
2022/09/06 12:41:29;;;;;;;4.70;2.20;;;26.80;55.50;;;;;;5016146;28;21143;-72
2022/09/06 12:44:01;;;;;;;6.40;1.90;;;26.80;55.30;;;;;;5034116;28;20700;-72
2022/09/06 12:46:32;;;;;;;4.53;2.07;;;26.80;55.30;;;;;;5034914;28;20467;-72
2022/09/06 12:49:04;;;;;;;5.77;2.27;;;26.80;55.20;;;;;;5019990;28;20478;-72
2022/09/06 12:51:33;;;;;;;6.43;2.20;;;26.80;55.20;;;;;;5031250;28;21253;-72
2022/09/06 12:54:04;;;;;;;5.43;2.10;;;26.80;55.10;;;;;;5020848;28;20455;-72
2022/09/06 12:56:33;;;;;;;5.83;2.00;;;26.90;55.10;;;;;;5035821;28;20483;-72
2022/09/06 12:59:13;;;;;;;5.27;1.70;;;26.90;55.10;;;;;;5035455;28;20477;-72
2022/09/06 13:01:47;;;;;;;5.00;2.00;;;27.00;54.80;;;;;;5034292;28;20532;-72
2022/09/06 13:04:24;;;;;;;4.80;1.60;;;27.00;55.00;;;;;;5016703;28;20483;-72
2022/09/06 13:06:55;;;;;;;4.53;1.83;;;27.10;54.80;;;;;;5034887;28;20464;-72
2022/09/06 13:09:26;;;;;;;4.83;1.40;;;27.20;54.70;;;;;;5041998;28;20460;-73
2022/09/06 13:11:58;;;;;;;5.60;1.60;;;27.30;54.40;;;;;;5040356;28;20468;-72
2022/09/06 13:14:29;;;;;;;5.73;1.97;;;27.40;53.90;;;;;;5035896;28;20460;-72
2022/09/06 13:16:58;;;;;;;5.90;2.37;;;27.40;53.70;;;;;;5036696;28;20501;-72